This is the latest recevied weather packets stored in our database for station/object ON5MM-5. If no packets are shown the sender has not sent any weather packets the latest 10 day(s).
| Time | Temp. | Humidity | Pressure | Rain* | Wind** | Luminosity | Snow |
|---|---|---|---|---|---|---|---|
| 1777335302 | 6.11° C | 67% | 1021.2 hPa | 0 mm | 0 m/s | - | - |
| 1777335002 | 6.11° C | 67% | 1021.2 hPa | 0 mm | 0 m/s | - | - |
| 1777334703 | 6.11° C | 67% | 1021.3 hPa | 0 mm | 0 m/s | - | - |
| 1777334402 | 6.11° C | 66% | 1021.3 hPa | 0 mm | 0 m/s | - | - |
| 1777334103 | 6.11° C | 65% | 1021.3 hPa | 0 mm | 0 m/s | - | - |
| 1777333803 | 6.67° C | 65% | 1021.3 hPa | 0 mm | 0 m/s | - | - |
| 1777333502 | 7.78° C | 60% | 1021.4 hPa | 0 mm | 0 m/s | - | - |
| 1777333202 | 7.78° C | 60% | 1021.3 hPa | 0 mm | 0 m/s | - | - |
| 1777332902 | 7.78° C | 60% | 1021.3 hPa | 0 mm | 0 m/s | - | - |
| 1777332603 | 7.78° C | 61% | 1021.3 hPa | 0 mm | 0 m/s | - | - |
| 1777332302 | 6.67° C | 64% | 1021.3 hPa | 0 mm | 0 m/s | - | - |
| 1777332002 | 6.67° C | 66% | 1021.3 hPa | 0 mm | 0 m/s | - | - |
| 1777331703 | 6.67° C | 67% | 1021.2 hPa | 0 mm | 0 m/s | - | - |
| 1777331402 | 6.11° C | 67% | 1021.2 hPa | 0 mm | 0 m/s | - | - |
| 1777331103 | 6.67° C | 67% | 1021.2 hPa | 0 mm | 0 m/s | - | - |
| 1777330803 | 6.67° C | 65% | 1021.2 hPa | 0 mm | 0 m/s | - | - |
| 1777330502 | 6.67° C | 66% | 1021.2 hPa | 0 mm | 0 m/s | - | - |
| 1777330203 | 6.67° C | 65% | 1021.2 hPa | 0 mm | 0 m/s | - | - |
| 1777329902 | 7.22° C | 64% | 1021.2 hPa | 0 mm | 0 m/s | - | - |
| 1777329603 | 7.22° C | 62% | 1021.2 hPa | 0 mm | 0 m/s | - | - |
| 1777329303 | 7.22° C | 60% | 1021.2 hPa | 0 mm | 0 m/s | - | - |
| 1777329002 | 7.22° C | 61% | 1021.3 hPa | 0 mm | 0 m/s | - | - |
| 1777328702 | 7.22° C | 62% | 1021.3 hPa | 0 mm | 0 m/s | - | - |
| 1777328403 | 7.22° C | 62% | 1021.2 hPa | 0 mm | 0 m/s | - | - |
| 1777328102 | 7.22° C | 62% | 1021.2 hPa | 0 mm | 0 m/s | - | - |
* Rain latest hour (hover to see other rain measurements)
** Current wind speed in m/s (hover to see current wind gust speed)